McGregor, Minnesota
Current Conditions -  °F | °C
As of 4:27 PM on Sunday 23 Nov 2014 (Local Time) from KHZX Reporting Station
Overcast Overcast  
Wind Chill: 37°   Ceiling: 4500
Heat Index: 37°   Visibility: 7mi
Dew Point: 34°   Wind: 3mph
Humidity: 87%   Direction: 260°W
Pressure: 29.38"   Gusts: NA
Location:  46.61°N, 93.31°W
Report Text: KHZX 232227Z AUTO 26003KT 7SM OVC045 03/01 A2938 RMK AO2
Loading
Personal Weather Stations






























Interactive Weather Map New forecast layout! Learn more

10-Day Weather Forecast

Advertisements
Track Severe Weather on mobile